createdAt,value
2022-08-22T00:01:18.028Z,3.00
2022-08-22T00:02:56.067Z,1.60
2022-08-22T00:03:11.356Z,3.20
2022-08-22T00:06:37.797Z,8.30
2022-08-22T00:12:18.091Z,2.20
2022-08-22T00:17:41.276Z,4.00
2022-08-22T00:23:12.035Z,4.30
2022-08-22T00:28:29.364Z,3.10
2022-08-22T00:33:41.806Z,4.50
2022-08-22T00:39:00.277Z,2.50
2022-08-22T00:44:33.427Z,3.40
2022-08-22T00:50:12.687Z,2.30
2022-08-22T00:55:36.847Z,2.30
2022-08-22T01:00:46.252Z,3.10
2022-08-22T01:06:16.483Z,3.70
2022-08-22T01:11:34.998Z,2.20
2022-08-22T01:16:54.354Z,2.80
2022-08-22T01:22:17.974Z,3.30
2022-08-22T01:27:41.746Z,1.90
2022-08-22T01:33:08.818Z,4.00
2022-08-22T01:38:39.980Z,1.30
2022-08-22T01:43:59.846Z,1.90
2022-08-22T01:49:13.554Z,3.10
2022-08-22T01:54:26.792Z,4.30
2022-08-22T01:59:42.152Z,1.70
2022-08-22T02:05:31.237Z,2.10
2022-08-22T02:11:03.809Z,2.50
2022-08-22T02:16:31.016Z,1.90
2022-08-22T02:21:48.126Z,3.00
2022-08-22T02:27:06.103Z,1.90
2022-08-22T02:32:30.098Z,2.10
2022-08-22T02:37:40.399Z,1.90
2022-08-22T02:42:59.971Z,2.00
2022-08-22T02:48:26.364Z,2.10
2022-08-22T02:53:56.432Z,4.80
2022-08-22T02:59:23.838Z,6.40
2022-08-22T03:04:31.729Z,1.90
2022-08-22T03:09:40.277Z,3.00
2022-08-22T03:15:14.223Z,4.10
2022-08-22T03:20:35.253Z,2.30
2022-08-22T03:26:07.448Z,5.10
2022-08-22T03:31:17.924Z,1.70
2022-08-22T03:36:28.138Z,3.20
2022-08-22T03:41:39.093Z,2.30
2022-08-22T03:47:08.340Z,2.50
2022-08-22T03:52:14.471Z,2.30
2022-08-22T03:57:58.833Z,1.80
2022-08-22T04:03:16.518Z,6.20
2022-08-22T04:08:26.443Z,2.60
2022-08-22T04:13:50.580Z,2.60
2022-08-22T04:19:19.987Z,3.60
2022-08-22T04:24:33.842Z,2.50
2022-08-22T04:29:47.397Z,1.60
2022-08-22T04:34:54.180Z,3.80
2022-08-22T04:40:01.685Z,5.50
2022-08-22T04:45:17.890Z,3.10
2022-08-22T04:50:29.115Z,1.10
2022-08-22T04:56:09.365Z,3.20
2022-08-22T05:01:25.228Z,5.60
2022-08-22T05:06:30.160Z,1.80
2022-08-22T05:11:34.967Z,3.10
2022-08-22T05:16:39.705Z,0.90
2022-08-22T05:21:43.489Z,1.40
2022-08-22T05:26:50.470Z,2.60
2022-08-22T05:32:02.112Z,2.70
2022-08-22T05:37:17.524Z,2.50
2022-08-22T05:42:31.526Z,1.10
2022-08-22T05:47:37.158Z,3.30
2022-08-22T05:52:58.809Z,0.80
2022-08-22T05:58:37.106Z,2.80
2022-08-22T06:03:47.638Z,2.20
2022-08-22T06:09:08.391Z,2.00
2022-08-22T06:14:54.122Z,4.40
2022-08-22T06:19:56.219Z,2.20
2022-08-22T06:25:14.050Z,1.20
2022-08-22T06:30:31.397Z,1.90
2022-08-22T06:35:59.829Z,2.30
2022-08-22T06:41:06.875Z,2.70
2022-08-22T06:46:11.341Z,1.10
2022-08-22T06:51:15.403Z,2.00
2022-08-22T06:56:24.476Z,2.50
2022-08-22T07:01:51.867Z,7.60
2022-08-22T07:06:56.357Z,0.70
2022-08-22T07:12:02.328Z,1.00
2022-08-22T07:17:08.725Z,1.00
2022-08-22T07:22:27.191Z,1.70
2022-08-22T07:27:48.891Z,1.40
2022-08-22T07:33:01.513Z,0.60
2022-08-22T07:38:27.064Z,1.50
2022-08-22T07:43:47.066Z,2.90
2022-08-22T07:49:08.735Z,2.30
2022-08-22T07:54:18.453Z,1.60
2022-08-22T07:59:33.046Z,0.90
2022-08-22T08:04:43.597Z,0.40
2022-08-22T08:10:07.908Z,1.10
2022-08-22T08:15:19.582Z,2.50
2022-08-22T08:20:24.408Z,0.50
2022-08-22T08:25:29.085Z,0.70
2022-08-22T08:30:42.750Z,0.40
2022-08-22T08:36:02.446Z,1.90
2022-08-22T08:41:35.204Z,0.60
2022-08-22T08:46:55.534Z,0.60
2022-08-22T08:52:24.478Z,0.50
2022-08-22T08:57:56.507Z,3.00
2022-08-22T09:03:07.659Z,1.10
2022-08-22T09:08:41.954Z,2.60
2022-08-22T09:14:17.993Z,1.40
2022-08-22T09:20:17.849Z,3.30
2022-08-22T09:25:51.748Z,1.10
2022-08-22T09:31:47.797Z,1.70
2022-08-22T09:37:14.180Z,1.90
2022-08-22T09:42:46.629Z,2.20
2022-08-22T09:48:00.289Z,2.90
2022-08-22T09:53:50.094Z,2.50
2022-08-22T09:59:31.328Z,2.90
2022-08-22T10:04:45.602Z,3.10
2022-08-22T10:15:48.575Z,3.50
2022-08-22T10:21:15.181Z,2.40
2022-08-22T10:26:42.225Z,2.90
2022-08-22T10:31:58.884Z,5.10
2022-08-22T10:37:36.852Z,4.80
2022-08-22T10:42:51.811Z,4.30
2022-08-22T10:48:09.751Z,5.30
2022-08-22T10:53:35.211Z,5.40
2022-08-22T10:59:35.558Z,4.30
2022-08-22T11:04:43.604Z,6.10
2022-08-22T11:09:58.256Z,5.20
2022-08-22T11:15:11.052Z,5.70
2022-08-22T11:20:40.243Z,6.20
2022-08-22T11:25:58.017Z,5.60
2022-08-22T11:31:36.675Z,5.20
2022-08-22T11:36:55.094Z,8.30
2022-08-22T11:42:04.740Z,5.10
2022-08-22T11:47:27.120Z,5.70
2022-08-22T11:52:51.511Z,6.40
2022-08-22T11:58:17.397Z,5.20
2022-08-22T12:03:44.811Z,5.20
2022-08-22T12:09:10.482Z,4.40
2022-08-22T12:15:02.411Z,4.80
2022-08-22T12:20:38.120Z,6.10
2022-08-22T12:26:23.337Z,5.10
2022-08-22T12:32:10.204Z,4.10
2022-08-22T12:37:24.316Z,4.30
2022-08-22T12:42:50.854Z,6.00
2022-08-22T12:48:25.246Z,7.90
2022-08-22T12:53:53.335Z,8.40
2022-08-22T12:59:25.691Z,5.50
2022-08-22T13:04:55.853Z,5.30
2022-08-22T13:10:34.410Z,5.30
2022-08-22T13:15:53.619Z,7.10
2022-08-22T13:21:02.992Z,5.20
2022-08-22T13:26:24.421Z,7.30
2022-08-22T13:31:40.846Z,7.30
2022-08-22T13:36:52.000Z,6.50
2022-08-22T13:47:18.944Z,7.80
2022-08-22T13:52:32.232Z,10.10
2022-08-22T13:57:54.790Z,9.80
2022-08-22T14:03:08.221Z,9.00
2022-08-22T14:08:18.776Z,8.10
2022-08-22T14:13:30.287Z,8.10
2022-08-22T14:18:37.683Z,7.30
2022-08-22T14:23:51.892Z,8.30
2022-08-22T14:28:56.478Z,24.60
2022-08-22T14:34:07.309Z,10.10
2022-08-22T14:39:23.316Z,8.70
2022-08-22T14:44:42.152Z,7.50
2022-08-22T14:49:49.602Z,10.60
2022-08-22T14:55:22.509Z,10.60
2022-08-22T15:00:32.870Z,12.50
2022-08-22T15:05:50.548Z,12.20
2022-08-22T15:11:17.150Z,10.50
2022-08-22T15:16:29.116Z,11.20
2022-08-22T15:21:33.266Z,12.50
2022-08-22T15:26:51.129Z,14.00
2022-08-22T15:32:06.422Z,12.40
2022-08-22T15:37:20.151Z,11.40
2022-08-22T15:42:32.218Z,13.00
2022-08-22T15:47:41.456Z,12.40
2022-08-22T15:53:30.390Z,13.70
2022-08-22T15:58:48.708Z,16.20
2022-08-22T16:04:06.229Z,13.70
2022-08-22T16:09:09.849Z,15.70
2022-08-22T16:14:49.474Z,12.80
2022-08-22T16:20:18.487Z,18.50
2022-08-22T16:25:47.242Z,16.50
2022-08-22T16:30:49.852Z,15.30
2022-08-22T16:36:31.893Z,13.90
2022-08-22T16:41:41.432Z,12.90
2022-08-22T16:46:45.170Z,16.00
2022-08-22T16:52:24.465Z,15.90
2022-08-22T16:58:04.984Z,17.90
2022-08-22T17:03:27.636Z,13.20
2022-08-22T17:08:58.773Z,11.40
2022-08-22T17:14:35.013Z,16.50
2022-08-22T17:20:00.170Z,14.50
2022-08-22T17:25:29.184Z,16.40
2022-08-22T17:30:50.910Z,14.90
2022-08-22T17:36:01.383Z,18.50
2022-08-22T17:41:25.296Z,16.40
2022-08-22T17:46:49.219Z,13.70
2022-08-22T17:52:16.673Z,12.00
2022-08-22T17:57:34.882Z,13.10
2022-08-22T18:03:03.651Z,14.90
2022-08-22T18:14:37.733Z,14.80
2022-08-22T18:19:52.152Z,12.30
2022-08-22T18:25:05.964Z,14.80
2022-08-22T18:30:23.238Z,12.80
2022-08-22T18:35:50.000Z,11.20
2022-08-22T18:41:08.985Z,13.60
2022-08-22T18:46:31.734Z,13.20
2022-08-22T18:52:05.317Z,12.80
2022-08-22T18:57:32.387Z,11.70
2022-08-22T19:03:21.310Z,11.70
2022-08-22T19:09:07.672Z,11.80
2022-08-22T19:14:20.096Z,12.20
2022-08-22T19:20:22.284Z,10.20
2022-08-22T19:25:30.611Z,8.30
2022-08-22T19:30:53.094Z,7.80
2022-08-22T19:36:09.531Z,7.70
2022-08-22T19:42:01.671Z,6.90
2022-08-22T19:47:09.033Z,7.90
2022-08-22T19:52:45.946Z,6.30
2022-08-22T19:57:55.489Z,6.80
2022-08-22T20:03:14.539Z,5.80
2022-08-22T20:08:27.953Z,6.20
2022-08-22T20:13:50.998Z,7.80
2022-08-22T20:19:18.078Z,6.90
2022-08-22T20:24:32.889Z,8.10
2022-08-22T20:29:39.735Z,9.90
2022-08-22T20:34:42.513Z,9.40
2022-08-22T20:39:59.019Z,7.60
2022-08-22T20:45:12.052Z,6.60
2022-08-22T20:50:22.276Z,6.30
2022-08-22T20:55:33.017Z,5.80
2022-08-22T21:00:45.045Z,7.10
2022-08-22T21:05:47.445Z,5.20
2022-08-22T21:11:17.048Z,6.20
2022-08-22T21:16:21.434Z,6.10
2022-08-22T21:21:27.096Z,6.20
2022-08-22T21:26:38.253Z,7.70
2022-08-22T21:32:26.848Z,6.40
2022-08-22T21:37:34.783Z,7.00
2022-08-22T21:42:39.410Z,6.40
2022-08-22T21:47:42.263Z,5.80
2022-08-22T21:53:14.080Z,5.50
2022-08-22T22:03:39.579Z,6.10
2022-08-22T22:08:41.603Z,4.20
2022-08-22T22:13:44.343Z,4.70
2022-08-22T22:23:52.216Z,5.40
2022-08-22T22:28:55.734Z,5.50
2022-08-22T22:39:26.664Z,8.10
2022-08-22T22:44:35.351Z,6.70
2022-08-22T22:49:40.766Z,8.80
2022-08-22T22:54:42.877Z,7.90
2022-08-22T22:59:45.008Z,7.80
2022-08-22T23:04:51.200Z,9.10
2022-08-22T23:09:54.480Z,8.20
2022-08-22T23:15:09.389Z,8.30
2022-08-22T23:20:11.634Z,9.00
2022-08-22T23:25:14.740Z,9.40
2022-08-22T23:30:16.736Z,9.50
2022-08-22T23:35:19.545Z,9.90
2022-08-22T23:40:22.180Z,11.70
2022-08-22T23:45:24.280Z,8.80
2022-08-22T23:50:26.167Z,12.20
2022-08-22T23:55:28.209Z,9.30
